Time,TemperatureF,DewpointF,PressureIn,WindDirection,WindDirectionDegrees,WindSpeedMPH,WindSpeedGustMPH,Humidity,HourlyPrecipIn,Conditions,Clouds,dailyrainin,SoftwareType,DateUTC
2013-03-09 00:02:00,45.0,34.0,30.22,ENE,57,1.0,7.0,64,0.00,,,0.00,,2013-03-09 06:02:00,
2013-03-09 00:11:00,44.0,34.0,30.21,South,186,0.0,7.0,67,0.00,,,0.00,,2013-03-09 06:11:00,
2013-03-09 00:22:00,44.0,34.0,30.21,South,186,0.0,7.0,67,0.00,,,0.00,,2013-03-09 06:22:00,
2013-03-09 00:32:00,44.0,33.0,30.21,SE,130,2.0,5.0,65,0.00,,,0.00,,2013-03-09 06:32:00,
2013-03-09 00:42:00,44.0,33.0,30.21,SE,130,2.0,5.0,65,0.00,,,0.00,,2013-03-09 06:42:00,
2013-03-09 00:51:00,44.0,33.0,30.20,SE,124,1.0,6.0,65,0.00,,,0.00,,2013-03-09 06:51:00,
2013-03-09 01:01:00,45.0,34.0,30.19,SSE,155,2.0,5.0,64,0.00,,,0.00,,2013-03-09 07:01:00,
2013-03-09 01:11:00,45.0,34.0,30.19,SSE,155,2.0,5.0,64,0.00,,,0.00,,2013-03-09 07:11:00,
2013-03-09 01:21:00,45.0,33.0,30.19,SSE,151,1.0,6.0,63,0.00,,,0.00,,2013-03-09 07:21:00,
2013-03-09 01:32:00,45.0,33.0,30.19,SSE,159,2.0,6.0,62,0.00,,,0.00,,2013-03-09 07:32:00,
2013-03-09 01:42:00,45.0,33.0,30.19,SSE,159,2.0,6.0,62,0.00,,,0.00,,2013-03-09 07:42:00,
2013-03-09 01:51:00,45.0,33.0,30.18,ESE,115,1.0,5.0,63,0.00,,,0.00,,2013-03-09 07:51:00,
2013-03-09 02:01:00,44.0,32.0,30.18,SSE,168,1.0,6.0,63,0.00,,,0.00,,2013-03-09 08:01:00,
2013-03-09 02:11:00,44.0,32.0,30.18,SSE,168,1.0,6.0,63,0.00,,,0.00,,2013-03-09 08:11:00,
2013-03-09 02:22:00,44.0,32.0,30.17,SSE,148,2.0,6.0,62,0.00,,,0.00,,2013-03-09 08:22:00,
2013-03-09 02:32:00,44.0,32.0,30.16,SE,136,4.0,7.0,62,0.00,,,0.00,,2013-03-09 08:32:00,
2013-03-09 02:42:00,44.0,32.0,30.16,SE,136,4.0,7.0,62,0.00,,,0.00,,2013-03-09 08:42:00,
2013-03-09 02:52:00,44.0,32.0,30.15,South,188,3.0,7.0,62,0.00,,,0.00,,2013-03-09 08:52:00,
2013-03-09 03:01:00,44.0,32.0,30.14,East,85,3.0,6.0,62,0.00,,,0.00,,2013-03-09 09:01:00,
2013-03-09 03:12:00,44.0,32.0,30.14,East,85,3.0,6.0,62,0.00,,,0.00,,2013-03-09 09:12:00,
2013-03-09 03:21:00,44.0,32.0,30.12,WSW,244,1.0,6.0,62,0.00,,,0.00,,2013-03-09 09:21:00,
2013-03-09 03:32:00,44.0,31.0,30.13,SE,136,3.0,9.0,61,0.00,,,0.00,,2013-03-09 09:32:00,
2013-03-09 03:42:00,44.0,31.0,30.13,SE,136,3.0,9.0,61,0.00,,,0.00,,2013-03-09 09:42:00,
2013-03-09 03:52:00,44.0,31.0,30.13,SW,236,4.0,8.0,61,0.00,,,0.00,,2013-03-09 09:52:00,
2013-03-09 04:01:00,44.0,31.0,30.13,SSW,199,2.0,9.0,61,0.00,,,0.00,,2013-03-09 10:01:00,
2013-03-09 04:11:00,44.0,31.0,30.13,SSW,199,2.0,9.0,61,0.00,,,0.00,,2013-03-09 10:11:00,
2013-03-09 04:21:00,44.0,31.0,30.13,SE,132,2.0,6.0,61,0.00,,,0.00,,2013-03-09 10:21:00,
2013-03-09 04:31:00,44.0,32.0,30.14,SSE,157,3.0,6.0,62,0.00,,,0.00,,2013-03-09 10:31:00,
2013-03-09 04:42:00,44.0,32.0,30.14,SSE,157,3.0,6.0,62,0.00,,,0.00,,2013-03-09 10:42:00,
2013-03-09 04:52:00,44.0,32.0,30.13,South,186,2.0,5.0,62,0.00,,,0.00,,2013-03-09 10:52:00,
2013-03-09 05:01:00,43.0,31.0,30.13,South,179,2.0,8.0,63,0.00,,,0.00,,2013-03-09 11:01:00,
2013-03-09 05:11:00,43.0,31.0,30.13,South,179,2.0,8.0,63,0.00,,,0.00,,2013-03-09 11:11:00,
2013-03-09 05:21:00,43.0,31.0,30.13,South,169,2.0,6.0,62,0.00,,,0.00,,2013-03-09 11:21:00,
2013-03-09 05:32:00,43.0,31.0,30.14,South,184,2.0,6.0,62,0.00,,,0.00,,2013-03-09 11:32:00,
2013-03-09 05:42:00,43.0,31.0,30.14,South,184,2.0,6.0,62,0.00,,,0.00,,2013-03-09 11:42:00,
2013-03-09 05:52:00,43.0,32.0,30.13,SSW,213,1.0,5.0,66,0.00,,,0.00,,2013-03-09 11:52:00,
2013-03-09 06:01:00,43.0,32.0,30.14,SW,236,2.0,5.0,65,0.00,,,0.00,,2013-03-09 12:01:00,
2013-03-09 06:11:00,43.0,32.0,30.14,SW,236,2.0,5.0,65,0.00,,,0.00,,2013-03-09 12:11:00,
2013-03-09 06:21:00,43.0,35.0,30.14,SE,145,2.0,4.0,72,0.01,,,0.01,,2013-03-09 12:21:00,
2013-03-09 06:32:00,41.0,35.0,30.12,SE,145,0.0,4.0,79,0.02,,,0.02,,2013-03-09 12:32:00,
2013-03-09 06:42:00,41.0,35.0,30.12,SE,145,0.0,4.0,79,0.02,,,0.02,,2013-03-09 12:42:00,
2013-03-09 06:52:00,40.0,35.0,30.13,SSE,148,1.0,5.0,81,0.03,,,0.03,,2013-03-09 12:52:00,
2013-03-09 07:02:00,40.0,35.0,30.12,ESE,121,0.0,4.0,83,0.05,,,0.05,,2013-03-09 13:02:00,
2013-03-09 07:11:00,40.0,35.0,30.12,ESE,121,0.0,4.0,83,0.05,,,0.05,,2013-03-09 13:11:00,
2013-03-09 07:21:00,40.0,36.0,30.12,SE,126,0.0,3.0,85,0.06,,,0.06,,2013-03-09 13:21:00,
2013-03-09 07:32:00,40.0,35.0,30.13,SSE,159,1.0,4.0,83,0.04,,,0.06,,2013-03-09 13:32:00,
2013-03-09 07:42:00,40.0,35.0,30.13,SSE,159,1.0,4.0,83,0.04,,,0.06,,2013-03-09 13:42:00,
2013-03-09 07:52:00,40.0,36.0,30.13,South,174,0.0,4.0,85,0.05,,,0.08,,2013-03-09 13:52:00,
2013-03-09 08:01:00,40.0,36.0,30.14,South,175,1.0,3.0,86,0.04,,,0.09,,2013-03-09 14:01:00,
2013-03-09 08:11:00,40.0,36.0,30.14,South,175,1.0,3.0,86,0.04,,,0.09,,2013-03-09 14:11:00,
2013-03-09 08:21:00,40.0,36.0,30.14,SSE,154,1.0,3.0,87,0.02,,,0.09,,2013-03-09 14:21:00,
2013-03-09 08:32:00,40.0,36.0,30.14,SSE,159,1.0,4.0,87,0.03,,,0.09,,2013-03-09 14:32:00,
2013-03-09 08:42:00,40.0,36.0,30.14,SSE,159,1.0,4.0,87,0.03,,,0.09,,2013-03-09 14:42:00,
2013-03-09 08:52:00,40.0,36.0,30.12,SSE,167,2.0,5.0,87,0.02,,,0.10,,2013-03-09 14:52:00,
2013-03-09 09:02:00,40.0,37.0,30.12,SSW,194,2.0,5.0,88,0.04,,,0.13,,2013-03-09 15:02:00,
2013-03-09 09:11:00,40.0,37.0,30.12,SSW,194,2.0,5.0,88,0.04,,,0.13,,2013-03-09 15:11:00,
2013-03-09 09:22:00,40.0,37.0,30.12,SSW,198,1.0,4.0,89,0.05,,,0.13,,2013-03-09 15:22:00,
2013-03-09 09:32:00,40.0,37.0,30.11,ESE,109,1.0,6.0,89,0.04,,,0.13,,2013-03-09 15:32:00,
2013-03-09 09:42:00,40.0,37.0,30.11,ESE,109,1.0,6.0,89,0.04,,,0.13,,2013-03-09 15:42:00,
2013-03-09 09:52:00,40.0,37.0,30.11,SSE,159,2.0,6.0,89,0.05,,,0.15,,2013-03-09 15:52:00,
2013-03-09 10:01:00,40.0,37.0,30.10,South,175,1.0,6.0,89,0.03,,,0.16,,2013-03-09 16:01:00,
2013-03-09 10:11:00,40.0,37.0,30.10,South,175,1.0,6.0,89,0.03,,,0.16,,2013-03-09 16:11:00,
2013-03-09 10:21:00,40.0,37.0,30.10,SSE,162,1.0,5.0,90,0.05,,,0.18,,2013-03-09 16:21:00,
2013-03-09 10:32:00,39.0,37.0,30.09,South,184,1.0,5.0,91,0.08,,,0.21,,2013-03-09 16:32:00,
2013-03-09 10:42:00,39.0,37.0,30.09,South,184,1.0,5.0,91,0.08,,,0.21,,2013-03-09 16:42:00,
2013-03-09 10:51:00,39.0,37.0,30.09,SSE,163,1.0,7.0,91,0.09,,,0.24,,2013-03-09 16:51:00,
2013-03-09 11:01:00,40.0,38.0,30.06,SSE,163,3.0,8.0,91,0.08,,,0.24,,2013-03-09 17:01:00,
2013-03-09 11:11:00,40.0,38.0,30.06,SSE,163,3.0,8.0,91,0.08,,,0.24,,2013-03-09 17:11:00,
2013-03-09 11:22:00,41.0,39.0,30.05,SW,236,3.0,7.0,91,0.06,,,0.24,,2013-03-09 17:22:00,
2013-03-09 11:32:00,42.0,39.0,30.04,SE,130,3.0,8.0,89,0.02,,,0.24,,2013-03-09 17:32:00,
2013-03-09 11:42:00,42.0,39.0,30.04,SE,130,3.0,8.0,89,0.02,,,0.24,,2013-03-09 17:42:00,
2013-03-09 11:52:00,44.0,40.0,30.03,SE,141,4.0,9.0,87,0.00,,,0.24,,2013-03-09 17:52:00,
2013-03-09 12:02:00,46.0,41.0,30.03,SE,129,4.0,10.0,81,0.00,,,0.24,,2013-03-09 18:02:00,
2013-03-09 12:11:00,46.0,41.0,30.03,SE,129,4.0,10.0,81,0.00,,,0.24,,2013-03-09 18:11:00,
2013-03-09 12:21:00,48.0,40.0,30.02,SSE,156,4.0,10.0,75,0.00,,,0.24,,2013-03-09 18:21:00,
2013-03-09 12:32:00,50.0,42.0,30.01,ESE,108,4.0,10.0,73,0.00,,,0.24,,2013-03-09 18:32:00,
2013-03-09 12:42:00,50.0,42.0,30.01,ESE,108,4.0,10.0,73,0.00,,,0.24,,2013-03-09 18:42:00,
2013-03-09 12:52:00,52.0,41.0,29.99,West,273,4.0,11.0,66,0.00,,,0.24,,2013-03-09 18:52:00,
2013-03-09 13:01:00,53.0,42.0,29.98,SSE,166,3.0,8.0,65,0.00,,,0.24,,2013-03-09 19:01:00,
2013-03-09 13:11:00,53.0,42.0,29.98,SSE,166,3.0,8.0,65,0.00,,,0.24,,2013-03-09 19:11:00,
2013-03-09 13:22:00,53.0,40.0,29.96,South,186,4.0,11.0,62,0.00,,,0.24,,2013-03-09 19:22:00,
2013-03-09 13:32:00,53.0,40.0,29.96,South,186,4.0,11.0,62,0.00,,,0.24,,2013-03-09 19:32:00,
2013-03-09 13:42:00,53.0,40.0,29.96,South,186,4.0,11.0,62,0.00,,,0.24,,2013-03-09 19:42:00,
2013-03-09 13:51:00,54.0,40.0,29.94,ESE,116,6.0,13.0,60,0.00,,,0.24,,2013-03-09 19:51:00,
2013-03-09 14:01:00,56.0,41.0,29.92,South,171,6.0,16.0,56,0.00,,,0.24,,2013-03-09 20:01:00,
2013-03-09 14:11:00,56.0,41.0,29.92,South,171,6.0,16.0,56,0.00,,,0.24,,2013-03-09 20:11:00,
2013-03-09 14:21:00,57.0,41.0,29.91,SSW,196,5.0,10.0,55,0.00,,,0.24,,2013-03-09 20:21:00,
2013-03-09 14:32:00,58.0,42.0,29.90,SSE,149,2.0,8.0,55,0.00,,,0.24,,2013-03-09 20:32:00,
2013-03-09 14:42:00,58.0,42.0,29.90,SSE,149,2.0,8.0,55,0.00,,,0.24,,2013-03-09 20:42:00,
2013-03-09 14:52:00,59.0,42.0,29.89,SE,126,3.0,9.0,53,0.00,,,0.24,,2013-03-09 20:52:00,
2013-03-09 15:02:00,60.0,42.0,29.87,SE,130,5.0,13.0,51,0.00,,,0.24,,2013-03-09 21:02:00,
2013-03-09 15:12:00,60.0,42.0,29.87,SE,130,5.0,13.0,51,0.00,,,0.24,,2013-03-09 21:12:00,
2013-03-09 15:21:00,61.0,42.0,29.86,South,170,4.0,12.0,50,0.00,,,0.24,,2013-03-09 21:21:00,
2013-03-09 15:32:00,62.0,43.0,29.85,South,190,4.0,11.0,50,0.00,,,0.24,,2013-03-09 21:32:00,
2013-03-09 15:42:00,62.0,43.0,29.85,South,190,4.0,11.0,50,0.00,,,0.24,,2013-03-09 21:42:00,
2013-03-09 15:52:00,63.0,43.0,29.84,SE,125,5.0,11.0,48,0.00,,,0.24,,2013-03-09 21:52:00,
2013-03-09 16:01:00,65.0,43.0,29.83,SE,143,4.0,12.0,45,0.00,,,0.24,,2013-03-09 22:01:00,
2013-03-09 16:11:00,65.0,43.0,29.83,SE,143,4.0,12.0,45,0.00,,,0.24,,2013-03-09 22:11:00,
2013-03-09 16:21:00,66.0,43.0,29.82,SSE,166,3.0,10.0,43,0.00,,,0.24,,2013-03-09 22:21:00,
2013-03-09 16:32:00,68.0,39.0,29.82,SE,146,5.0,8.0,34,0.00,,,0.24,,2013-03-09 22:32:00,
2013-03-09 16:42:00,68.0,39.0,29.82,SE,146,5.0,8.0,34,0.00,,,0.24,,2013-03-09 22:42:00,
2013-03-09 16:51:00,69.0,41.0,29.81,SSW,193,2.0,12.0,36,0.00,,,0.24,,2013-03-09 22:51:00,
2013-03-09 17:01:00,68.0,39.0,29.81,SSE,148,3.0,11.0,34,0.00,,,0.24,,2013-03-09 23:01:00,
2013-03-09 17:11:00,68.0,39.0,29.81,SSE,148,3.0,11.0,34,0.00,,,0.24,,2013-03-09 23:11:00,
2013-03-09 17:21:00,68.0,37.0,29.82,SSW,202,5.0,16.0,32,0.00,,,0.24,,2013-03-09 23:21:00,
2013-03-09 17:32:00,67.0,38.0,29.80,SSW,202,5.0,14.0,34,0.00,,,0.24,,2013-03-09 23:32:00,
2013-03-09 17:41:00,67.0,38.0,29.80,SSW,202,5.0,14.0,34,0.00,,,0.24,,2013-03-09 23:41:00,
2013-03-09 17:52:00,66.0,38.0,29.80,SSE,150,6.0,13.0,36,0.00,,,0.24,,2013-03-09 23:52:00,
2013-03-09 18:01:00,66.0,40.0,29.82,SSE,167,4.0,11.0,38,0.00,,,0.24,,2013-03-10 00:01:00,
2013-03-09 18:11:00,66.0,40.0,29.82,SSE,167,4.0,11.0,38,0.00,,,0.24,,2013-03-10 00:11:00,
2013-03-09 18:22:00,65.0,40.0,29.82,South,191,4.0,10.0,40,0.00,,,0.24,,2013-03-10 00:22:00,
2013-03-09 18:32:00,64.0,40.0,29.82,SW,229,3.0,12.0,41,0.00,,,0.24,,2013-03-10 00:32:00,
2013-03-09 18:42:00,64.0,40.0,29.82,SW,229,3.0,12.0,41,0.00,,,0.24,,2013-03-10 00:42:00,
2013-03-09 18:52:00,63.0,41.0,29.83,South,175,4.0,14.0,45,0.00,,,0.24,,2013-03-10 00:52:00,
2013-03-09 19:01:00,62.0,42.0,29.83,South,184,3.0,9.0,47,0.00,,,0.24,,2013-03-10 01:01:00,
2013-03-09 19:11:00,62.0,42.0,29.83,South,184,3.0,9.0,47,0.00,,,0.24,,2013-03-10 01:11:00,
2013-03-09 19:21:00,61.0,41.0,29.83,SSE,157,4.0,11.0,47,0.00,,,0.24,,2013-03-10 01:21:00,
2013-03-09 19:32:00,61.0,40.0,29.83,SSE,149,5.0,14.0,45,0.00,,,0.24,,2013-03-10 01:32:00,
2013-03-09 19:41:00,61.0,40.0,29.83,SSE,149,5.0,14.0,45,0.00,,,0.24,,2013-03-10 01:41:00,
2013-03-09 19:52:00,61.0,40.0,29.83,South,180,3.0,10.0,46,0.00,,,0.24,,2013-03-10 01:52:00,
2013-03-09 20:01:00,60.0,39.0,29.83,ESE,117,2.0,6.0,46,0.00,,,0.24,,2013-03-10 02:01:00,
2013-03-09 20:11:00,60.0,39.0,29.83,ESE,117,2.0,6.0,46,0.00,,,0.24,,2013-03-10 02:11:00,
2013-03-09 20:22:00,60.0,40.0,29.82,SSE,161,2.0,7.0,47,0.00,,,0.24,,2013-03-10 02:22:00,
2013-03-09 20:32:00,59.0,39.0,29.82,SSE,155,2.0,8.0,48,0.00,,,0.24,,2013-03-10 02:32:00,
2013-03-09 20:42:00,59.0,39.0,29.82,SSE,155,2.0,8.0,48,0.00,,,0.24,,2013-03-10 02:42:00,
2013-03-09 20:52:00,59.0,39.0,29.82,SSE,159,3.0,6.0,47,0.00,,,0.24,,2013-03-10 02:52:00,
2013-03-09 21:01:00,59.0,39.0,29.81,SSW,194,2.0,6.0,48,0.00,,,0.24,,2013-03-10 03:01:00,
2013-03-09 21:11:00,59.0,39.0,29.81,SSW,194,2.0,6.0,48,0.00,,,0.24,,2013-03-10 03:11:00,
2013-03-09 21:22:00,59.0,39.0,29.81,SE,146,2.0,7.0,48,0.00,,,0.24,,2013-03-10 03:22:00,
2013-03-09 21:32:00,59.0,39.0,29.82,SSE,157,3.0,8.0,47,0.00,,,0.24,,2013-03-10 03:32:00,
2013-03-09 21:42:00,59.0,39.0,29.82,SSE,157,3.0,8.0,47,0.00,,,0.24,,2013-03-10 03:42:00,
2013-03-09 21:52:00,59.0,39.0,29.82,SSE,156,3.0,9.0,47,0.00,,,0.24,,2013-03-10 03:52:00,
2013-03-09 22:01:00,58.0,38.0,29.82,South,184,3.0,7.0,47,0.00,,,0.24,,2013-03-10 04:01:00,
2013-03-09 22:11:00,58.0,38.0,29.82,South,184,3.0,7.0,47,0.00,,,0.24,,2013-03-10 04:11:00,
2013-03-09 22:21:00,58.0,38.0,29.82,SE,143,1.0,6.0,47,0.00,,,0.24,,2013-03-10 04:21:00,
2013-03-09 22:32:00,59.0,38.0,29.81,SSE,165,3.0,7.0,45,0.00,,,0.24,,2013-03-10 04:32:00,
2013-03-09 22:41:00,59.0,38.0,29.81,SSE,165,3.0,7.0,45,0.00,,,0.24,,2013-03-10 04:41:00,
2013-03-09 22:52:00,61.0,38.0,29.82,South,188,5.0,16.0,42,0.00,,,0.24,,2013-03-10 04:52:00,
2013-03-09 23:01:00,61.0,38.0,29.82,South,188,5.0,16.0,42,0.00,,,0.24,,2013-03-10 05:01:00,
2013-03-09 23:11:00,61.0,38.0,29.82,South,188,5.0,16.0,42,0.00,,,0.24,,2013-03-10 05:11:00,
2013-03-09 23:22:00,61.0,38.0,29.82,South,171,5.0,16.0,42,0.00,,,0.24,,2013-03-10 05:22:00,
2013-03-09 23:31:00,61.0,38.0,29.80,SSW,202,6.0,12.0,43,0.00,,,0.24,,2013-03-10 05:31:00,
2013-03-09 23:42:00,60.0,39.0,29.80,SSE,167,3.0,10.0,45,0.00,,,0.24,,2013-03-10 05:42:00,
2013-03-09 23:52:00,60.0,39.0,29.80,SSE,167,3.0,10.0,45,0.00,,,0.24,,2013-03-10 05:52:00,